sensor_id;sensor_type;location;lat;lon;timestamp;temperature;humidity
54930;DHT22;40833;53.238;6.576;2023-07-20T00:00:52;15.80;99.90
54930;DHT22;40833;53.238;6.576;2023-07-20T00:03:19;15.80;99.90
54930;DHT22;40833;53.238;6.576;2023-07-20T00:05:49;15.80;99.90
54930;DHT22;40833;53.238;6.576;2023-07-20T00:08:15;15.70;99.90
54930;DHT22;40833;53.238;6.576;2023-07-20T00:10:41;15.70;99.90
54930;DHT22;40833;53.238;6.576;2023-07-20T00:13:07;15.70;99.90
54930;DHT22;40833;53.238;6.576;2023-07-20T00:15:33;15.70;99.90
54930;DHT22;40833;53.238;6.576;2023-07-20T00:17:59;15.70;99.90
54930;DHT22;40833;53.238;6.576;2023-07-20T00:20:24;15.70;99.90
54930;DHT22;40833;53.238;6.576;2023-07-20T00:22:51;15.60;99.90
54930;DHT22;40833;53.238;6.576;2023-07-20T00:25:17;15.60;99.90
54930;DHT22;40833;53.238;6.576;2023-07-20T00:27:43;15.60;99.90
54930;DHT22;40833;53.238;6.576;2023-07-20T00:30:09;15.60;99.90
54930;DHT22;40833;53.238;6.576;2023-07-20T00:32:35;15.50;99.90
54930;DHT22;40833;53.238;6.576;2023-07-20T00:35:01;15.50;99.90
54930;DHT22;40833;53.238;6.576;2023-07-20T00:37:27;15.50;99.90
54930;DHT22;40833;53.238;6.576;2023-07-20T00:39:54;15.50;99.90
54930;DHT22;40833;53.238;6.576;2023-07-20T00:42:20;15.40;99.90
54930;DHT22;40833;53.238;6.576;2023-07-20T00:44:45;15.30;99.90
54930;DHT22;40833;53.238;6.576;2023-07-20T00:47:11;15.20;99.90
54930;DHT22;40833;53.238;6.576;2023-07-20T00:49:38;15.20;99.90
54930;DHT22;40833;53.238;6.576;2023-07-20T00:52:06;15.10;99.90
54930;DHT22;40833;53.238;6.576;2023-07-20T00:54:33;15.10;99.90
54930;DHT22;40833;53.238;6.576;2023-07-20T00:57:01;15.00;99.90
54930;DHT22;40833;53.238;6.576;2023-07-20T00:59:27;16.50;99.90
54930;DHT22;40833;53.238;6.576;2023-07-20T01:01:53;14.90;99.90
54930;DHT22;40833;53.238;6.576;2023-07-20T01:04:19;14.80;99.90
54930;DHT22;40833;53.238;6.576;2023-07-20T01:07:23;14.80;99.90
54930;DHT22;40833;53.238;6.576;2023-07-20T01:10:17;14.70;99.90
54930;DHT22;40833;53.238;6.576;2023-07-20T01:12:51;14.60;99.90
54930;DHT22;40833;53.238;6.576;2023-07-20T01:15:17;14.60;99.90
54930;DHT22;40833;53.238;6.576;2023-07-20T01:17:43;14.50;99.90
54930;DHT22;40833;53.238;6.576;2023-07-20T01:20:13;14.50;99.90
54930;DHT22;40833;53.238;6.576;2023-07-20T01:25:53;14.40;99.90
54930;DHT22;40833;53.238;6.576;2023-07-20T01:31:28;14.30;99.90
54930;DHT22;40833;53.238;6.576;2023-07-20T01:33:57;14.30;99.90
54930;DHT22;40833;53.238;6.576;2023-07-20T01:36:25;14.20;99.90
54930;DHT22;40833;53.238;6.576;2023-07-20T01:38:52;14.20;99.90
54930;DHT22;40833;53.238;6.576;2023-07-20T01:41:19;14.20;99.90
54930;DHT22;40833;53.238;6.576;2023-07-20T01:43:44;14.20;99.90
54930;DHT22;40833;53.238;6.576;2023-07-20T01:46:11;14.10;99.90
54930;DHT22;40833;53.238;6.576;2023-07-20T01:48:36;14.10;99.90
54930;DHT22;40833;53.238;6.576;2023-07-20T01:51:02;14.10;99.90
54930;DHT22;40833;53.238;6.576;2023-07-20T01:53:28;14.00;99.90
54930;DHT22;40833;53.238;6.576;2023-07-20T01:55:53;14.00;99.90
54930;DHT22;40833;53.238;6.576;2023-07-20T01:58:22;13.90;99.90
54930;DHT22;40833;53.238;6.576;2023-07-20T02:00:48;13.80;99.90
54930;DHT22;40833;53.238;6.576;2023-07-20T02:03:14;13.80;99.90
54930;DHT22;40833;53.238;6.576;2023-07-20T02:05:41;13.80;99.90
54930;DHT22;40833;53.238;6.576;2023-07-20T02:08:07;13.80;99.90
54930;DHT22;40833;53.238;6.576;2023-07-20T02:10:33;13.80;99.90
54930;DHT22;40833;53.238;6.576;2023-07-20T02:12:58;13.70;99.90
54930;DHT22;40833;53.238;6.576;2023-07-20T02:15:24;13.70;99.90
54930;DHT22;40833;53.238;6.576;2023-07-20T02:17:50;13.70;99.90
54930;DHT22;40833;53.238;6.576;2023-07-20T02:20:15;13.60;99.90
54930;DHT22;40833;53.238;6.576;2023-07-20T02:22:41;13.60;99.90
54930;DHT22;40833;53.238;6.576;2023-07-20T02:25:07;13.60;99.90
54930;DHT22;40833;53.238;6.576;2023-07-20T02:27:34;13.50;99.90
54930;DHT22;40833;53.238;6.576;2023-07-20T02:30:00;13.00;99.90
54930;DHT22;40833;53.238;6.576;2023-07-20T02:32:25;13.50;99.90
54930;DHT22;40833;53.238;6.576;2023-07-20T02:34:51;13.40;99.90
54930;DHT22;40833;53.238;6.576;2023-07-20T02:37:17;13.40;99.90
54930;DHT22;40833;53.238;6.576;2023-07-20T02:39:43;13.30;99.90
54930;DHT22;40833;53.238;6.576;2023-07-20T02:42:09;13.30;99.90
54930;DHT22;40833;53.238;6.576;2023-07-20T02:44:34;13.30;99.90
54930;DHT22;40833;53.238;6.576;2023-07-20T02:47:00;13.30;99.90
54930;DHT22;40833;53.238;6.576;2023-07-20T02:49:26;13.30;99.90
54930;DHT22;40833;53.238;6.576;2023-07-20T02:51:52;13.30;99.90
54930;DHT22;40833;53.238;6.576;2023-07-20T02:54:18;13.30;99.90
54930;DHT22;40833;53.238;6.576;2023-07-20T02:56:44;13.30;99.90
54930;DHT22;40833;53.238;6.576;2023-07-20T02:59:09;13.20;99.90
54930;DHT22;40833;53.238;6.576;2023-07-20T03:01:35;13.20;99.90
54930;DHT22;40833;53.238;6.576;2023-07-20T03:04:01;13.20;99.90
54930;DHT22;40833;53.238;6.576;2023-07-20T03:06:27;13.10;99.90
54930;DHT22;40833;53.238;6.576;2023-07-20T03:08:53;13.10;99.90
54930;DHT22;40833;53.238;6.576;2023-07-20T03:11:20;13.00;99.90
54930;DHT22;40833;53.238;6.576;2023-07-20T03:13:46;13.10;99.90
54930;DHT22;40833;53.238;6.576;2023-07-20T03:16:14;13.00;99.90
54930;DHT22;40833;53.238;6.576;2023-07-20T03:18:41;13.00;99.90
54930;DHT22;40833;53.238;6.576;2023-07-20T03:21:08;13.00;99.90
54930;DHT22;40833;53.238;6.576;2023-07-20T03:23:37;12.90;99.90
54930;DHT22;40833;53.238;6.576;2023-07-20T03:26:02;12.90;99.90
54930;DHT22;40833;53.238;6.576;2023-07-20T03:28:28;12.90;99.90
54930;DHT22;40833;53.238;6.576;2023-07-20T03:30:57;12.80;99.90
54930;DHT22;40833;53.238;6.576;2023-07-20T03:33:28;12.80;99.90
54930;DHT22;40833;53.238;6.576;2023-07-20T03:35:55;12.70;99.90
54930;DHT22;40833;53.238;6.576;2023-07-20T03:38:24;12.70;99.90
54930;DHT22;40833;53.238;6.576;2023-07-20T03:40:57;12.70;99.90
54930;DHT22;40833;53.238;6.576;2023-07-20T03:43:25;12.60;99.90
54930;DHT22;40833;53.238;6.576;2023-07-20T03:45:51;12.70;99.90
54930;DHT22;40833;53.238;6.576;2023-07-20T03:48:20;12.70;99.90
54930;DHT22;40833;53.238;6.576;2023-07-20T03:50:47;12.70;99.90
54930;DHT22;40833;53.238;6.576;2023-07-20T03:53:14;12.70;99.90
54930;DHT22;40833;53.238;6.576;2023-07-20T03:55:49;12.70;99.90
54930;DHT22;40833;53.238;6.576;2023-07-20T03:58:15;12.70;99.90
54930;DHT22;40833;53.238;6.576;2023-07-20T04:00:46;12.70;99.90
54930;DHT22;40833;53.238;6.576;2023-07-20T04:03:12;12.70;99.90
54930;DHT22;40833;53.238;6.576;2023-07-20T04:05:38;12.70;99.90
54930;DHT22;40833;53.238;6.576;2023-07-20T04:08:04;12.70;99.90
54930;DHT22;40833;53.238;6.576;2023-07-20T04:10:29;12.80;99.90
54930;DHT22;40833;53.238;6.576;2023-07-20T04:12:55;12.90;99.90
54930;DHT22;40833;53.238;6.576;2023-07-20T04:15:21;12.90;99.90
54930;DHT22;40833;53.238;6.576;2023-07-20T04:17:46;13.00;99.90
54930;DHT22;40833;53.238;6.576;2023-07-20T04:20:12;13.00;99.90
54930;DHT22;40833;53.238;6.576;2023-07-20T04:22:38;13.10;99.90
54930;DHT22;40833;53.238;6.576;2023-07-20T04:25:04;13.10;99.90
54930;DHT22;40833;53.238;6.576;2023-07-20T04:27:30;13.20;99.90
54930;DHT22;40833;53.238;6.576;2023-07-20T04:29:57;13.30;99.90
54930;DHT22;40833;53.238;6.576;2023-07-20T04:32:24;13.30;99.90
54930;DHT22;40833;53.238;6.576;2023-07-20T04:34:50;13.30;99.90
54930;DHT22;40833;53.238;6.576;2023-07-20T04:37:16;13.30;99.90
54930;DHT22;40833;53.238;6.576;2023-07-20T04:39:41;13.40;99.90
54930;DHT22;40833;53.238;6.576;2023-07-20T04:42:07;13.40;99.90
54930;DHT22;40833;53.238;6.576;2023-07-20T04:44:33;13.40;99.90
54930;DHT22;40833;53.238;6.576;2023-07-20T04:46:58;13.40;99.90
54930;DHT22;40833;53.238;6.576;2023-07-20T04:49:24;13.40;99.90
54930;DHT22;40833;53.238;6.576;2023-07-20T04:51:50;13.40;99.90
54930;DHT22;40833;53.238;6.576;2023-07-20T04:54:16;13.50;99.90
54930;DHT22;40833;53.238;6.576;2023-07-20T04:56:42;13.50;99.90
54930;DHT22;40833;53.238;6.576;2023-07-20T04:59:08;13.60;99.90
54930;DHT22;40833;53.238;6.576;2023-07-20T05:01:33;13.60;99.90
54930;DHT22;40833;53.238;6.576;2023-07-20T05:03:59;13.60;99.90
54930;DHT22;40833;53.238;6.576;2023-07-20T05:06:25;13.60;99.90
54930;DHT22;40833;53.238;6.576;2023-07-20T05:08:51;13.70;99.90
54930;DHT22;40833;53.238;6.576;2023-07-20T05:11:17;13.70;99.90
54930;DHT22;40833;53.238;6.576;2023-07-20T05:13:42;13.70;99.90
54930;DHT22;40833;53.238;6.576;2023-07-20T05:16:08;13.80;99.90
54930;DHT22;40833;53.238;6.576;2023-07-20T05:18:34;13.80;99.90
54930;DHT22;40833;53.238;6.576;2023-07-20T05:20:59;13.80;99.90
54930;DHT22;40833;53.238;6.576;2023-07-20T05:23:25;13.80;99.90
54930;DHT22;40833;53.238;6.576;2023-07-20T05:25:58;13.80;99.90
54930;DHT22;40833;53.238;6.576;2023-07-20T05:28:25;13.90;99.90
54930;DHT22;40833;53.238;6.576;2023-07-20T05:30:52;13.90;99.90
54930;DHT22;40833;53.238;6.576;2023-07-20T05:33:19;14.00;99.90
54930;DHT22;40833;53.238;6.576;2023-07-20T05:35:44;14.00;99.90
54930;DHT22;40833;53.238;6.576;2023-07-20T05:38:10;14.10;99.90
54930;DHT22;40833;53.238;6.576;2023-07-20T05:40:38;14.10;99.90
54930;DHT22;40833;53.238;6.576;2023-07-20T05:43:04;14.20;99.90
54930;DHT22;40833;53.238;6.576;2023-07-20T05:45:29;14.20;99.90
54930;DHT22;40833;53.238;6.576;2023-07-20T05:47:55;14.30;99.90
54930;DHT22;40833;53.238;6.576;2023-07-20T05:50:21;14.40;99.90
54930;DHT22;40833;53.238;6.576;2023-07-20T05:52:46;14.40;99.90
54930;DHT22;40833;53.238;6.576;2023-07-20T05:55:13;14.50;99.90
54930;DHT22;40833;53.238;6.576;2023-07-20T05:57:38;14.50;99.90
54930;DHT22;40833;53.238;6.576;2023-07-20T06:00:09;14.50;99.90
54930;DHT22;40833;53.238;6.576;2023-07-20T06:02:35;14.60;99.90
54930;DHT22;40833;53.238;6.576;2023-07-20T06:05:00;14.70;99.90
54930;DHT22;40833;53.238;6.576;2023-07-20T06:07:26;14.80;99.90
54930;DHT22;40833;53.238;6.576;2023-07-20T06:09:55;14.90;99.90
54930;DHT22;40833;53.238;6.576;2023-07-20T06:12:21;15.00;99.90
54930;DHT22;40833;53.238;6.576;2023-07-20T06:14:46;15.10;99.90
54930;DHT22;40833;53.238;6.576;2023-07-20T06:17:12;15.20;99.90
54930;DHT22;40833;53.238;6.576;2023-07-20T06:19:38;15.20;99.90
54930;DHT22;40833;53.238;6.576;2023-07-20T06:22:04;15.30;99.90
54930;DHT22;40833;53.238;6.576;2023-07-20T06:24:30;15.30;99.90
54930;DHT22;40833;53.238;6.576;2023-07-20T06:26:55;15.50;99.90
54930;DHT22;40833;53.238;6.576;2023-07-20T06:29:21;15.50;99.90
54930;DHT22;40833;53.238;6.576;2023-07-20T06:31:47;15.60;99.90
54930;DHT22;40833;53.238;6.576;2023-07-20T06:34:12;15.60;99.90
54930;DHT22;40833;53.238;6.576;2023-07-20T06:36:38;15.70;99.90
54930;DHT22;40833;53.238;6.576;2023-07-20T06:39:04;15.70;99.90
54930;DHT22;40833;53.238;6.576;2023-07-20T06:41:30;15.80;99.90
54930;DHT22;40833;53.238;6.576;2023-07-20T06:43:55;15.80;99.90
54930;DHT22;40833;53.238;6.576;2023-07-20T06:46:27;15.90;99.90
54930;DHT22;40833;53.238;6.576;2023-07-20T06:48:53;16.00;99.90
54930;DHT22;40833;53.238;6.576;2023-07-20T06:51:19;16.10;99.90
54930;DHT22;40833;53.238;6.576;2023-07-20T06:53:45;16.20;99.90
54930;DHT22;40833;53.238;6.576;2023-07-20T06:56:11;16.30;99.90
54930;DHT22;40833;53.238;6.576;2023-07-20T06:58:37;16.40;99.90
54930;DHT22;40833;53.238;6.576;2023-07-20T07:01:07;16.50;99.90
54930;DHT22;40833;53.238;6.576;2023-07-20T07:03:32;16.50;99.90
54930;DHT22;40833;53.238;6.576;2023-07-20T07:05:59;16.50;99.90
54930;DHT22;40833;53.238;6.576;2023-07-20T07:08:25;16.50;99.90
54930;DHT22;40833;53.238;6.576;2023-07-20T07:10:50;16.50;99.90
54930;DHT22;40833;53.238;6.576;2023-07-20T07:13:16;16.50;99.90
54930;DHT22;40833;53.238;6.576;2023-07-20T07:15:42;16.60;99.90
54930;DHT22;40833;53.238;6.576;2023-07-20T07:18:08;16.60;99.90
54930;DHT22;40833;53.238;6.576;2023-07-20T07:20:34;16.60;99.90
54930;DHT22;40833;53.238;6.576;2023-07-20T07:22:59;16.70;99.90
54930;DHT22;40833;53.238;6.576;2023-07-20T07:25:26;16.80;99.90
54930;DHT22;40833;53.238;6.576;2023-07-20T07:27:53;16.90;99.90
54930;DHT22;40833;53.238;6.576;2023-07-20T07:30:20;17.10;99.90
54930;DHT22;40833;53.238;6.576;2023-07-20T07:32:45;17.20;99.90
54930;DHT22;40833;53.238;6.576;2023-07-20T07:35:11;17.40;99.90
54930;DHT22;40833;53.238;6.576;2023-07-20T07:37:37;17.40;99.90
54930;DHT22;40833;53.238;6.576;2023-07-20T07:40:03;18.10;99.90
54930;DHT22;40833;53.238;6.576;2023-07-20T07:42:31;17.30;99.90
54930;DHT22;40833;53.238;6.576;2023-07-20T07:44:56;17.20;99.90
54930;DHT22;40833;53.238;6.576;2023-07-20T07:47:22;17.00;99.90
54930;DHT22;40833;53.238;6.576;2023-07-20T07:49:48;16.90;99.90
54930;DHT22;40833;53.238;6.576;2023-07-20T07:52:13;16.80;99.90
54930;DHT22;40833;53.238;6.576;2023-07-20T07:54:39;16.70;99.90
54930;DHT22;40833;53.238;6.576;2023-07-20T07:57:05;16.60;99.90
54930;DHT22;40833;53.238;6.576;2023-07-20T07:59:31;16.70;99.90
54930;DHT22;40833;53.238;6.576;2023-07-20T08:02:03;16.80;99.90
54930;DHT22;40833;53.238;6.576;2023-07-20T08:04:30;16.80;99.90
54930;DHT22;40833;53.238;6.576;2023-07-20T08:06:56;17.00;99.90
54930;DHT22;40833;53.238;6.576;2023-07-20T08:09:21;17.10;99.90
54930;DHT22;40833;53.238;6.576;2023-07-20T08:11:47;17.30;99.90
54930;DHT22;40833;53.238;6.576;2023-07-20T08:14:13;17.50;99.90
54930;DHT22;40833;53.238;6.576;2023-07-20T08:16:39;17.60;99.90
54930;DHT22;40833;53.238;6.576;2023-07-20T08:19:05;17.70;99.90
54930;DHT22;40833;53.238;6.576;2023-07-20T08:21:31;17.90;99.90
54930;DHT22;40833;53.238;6.576;2023-07-20T08:23:56;17.90;99.90
54930;DHT22;40833;53.238;6.576;2023-07-20T08:26:23;18.00;99.90
54930;DHT22;40833;53.238;6.576;2023-07-20T08:28:49;18.00;99.90
54930;DHT22;40833;53.238;6.576;2023-07-20T08:31:15;18.10;99.90
54930;DHT22;40833;53.238;6.576;2023-07-20T08:33:40;18.10;99.90
54930;DHT22;40833;53.238;6.576;2023-07-20T08:36:06;17.80;99.90
54930;DHT22;40833;53.238;6.576;2023-07-20T08:38:32;17.80;99.90
54930;DHT22;40833;53.238;6.576;2023-07-20T08:40:57;17.80;99.90
54930;DHT22;40833;53.238;6.576;2023-07-20T08:43:26;17.90;99.90
54930;DHT22;40833;53.238;6.576;2023-07-20T08:45:54;18.00;99.90
54930;DHT22;40833;53.238;6.576;2023-07-20T08:48:24;18.00;99.90
54930;DHT22;40833;53.238;6.576;2023-07-20T08:50:53;18.10;99.90
54930;DHT22;40833;53.238;6.576;2023-07-20T08:53:20;18.20;99.90
54930;DHT22;40833;53.238;6.576;2023-07-20T08:55:48;18.20;99.90
54930;DHT22;40833;53.238;6.576;2023-07-20T08:58:15;18.00;99.90
54930;DHT22;40833;53.238;6.576;2023-07-20T09:00:42;18.10;99.90
54930;DHT22;40833;53.238;6.576;2023-07-20T09:03:08;18.60;99.90
54930;DHT22;40833;53.238;6.576;2023-07-20T09:05:34;18.30;99.90
54930;DHT22;40833;53.238;6.576;2023-07-20T09:08:01;18.40;99.90
54930;DHT22;40833;53.238;6.576;2023-07-20T09:10:29;18.40;99.90
54930;DHT22;40833;53.238;6.576;2023-07-20T09:12:54;18.30;99.90
54930;DHT22;40833;53.238;6.576;2023-07-20T09:15:22;18.30;99.90
54930;DHT22;40833;53.238;6.576;2023-07-20T09:17:49;18.40;99.90
54930;DHT22;40833;53.238;6.576;2023-07-20T09:20:19;18.60;99.90
54930;DHT22;40833;53.238;6.576;2023-07-20T09:22:46;18.80;99.90
54930;DHT22;40833;53.238;6.576;2023-07-20T09:25:13;19.10;99.90
54930;DHT22;40833;53.238;6.576;2023-07-20T09:27:42;19.20;99.90
54930;DHT22;40833;53.238;6.576;2023-07-20T09:30:08;19.20;99.90
54930;DHT22;40833;53.238;6.576;2023-07-20T09:32:47;19.10;99.90
54930;DHT22;40833;53.238;6.576;2023-07-20T09:35:18;18.80;99.90
54930;DHT22;40833;53.238;6.576;2023-07-20T09:37:48;18.60;99.90
54930;DHT22;40833;53.238;6.576;2023-07-20T09:40:18;18.60;99.90
54930;DHT22;40833;53.238;6.576;2023-07-20T09:42:44;18.80;99.90
54930;DHT22;40833;53.238;6.576;2023-07-20T09:45:10;19.10;99.90
54930;DHT22;40833;53.238;6.576;2023-07-20T09:47:37;19.30;99.90
54930;DHT22;40833;53.238;6.576;2023-07-20T09:50:04;19.40;99.90
54930;DHT22;40833;53.238;6.576;2023-07-20T09:52:31;19.30;99.90
54930;DHT22;40833;53.238;6.576;2023-07-20T09:54:57;19.00;99.90
54930;DHT22;40833;53.238;6.576;2023-07-20T09:57:25;18.80;99.90
54930;DHT22;40833;53.238;6.576;2023-07-20T09:59:51;18.70;99.90
54930;DHT22;40833;53.238;6.576;2023-07-20T10:02:21;18.70;99.90
54930;DHT22;40833;53.238;6.576;2023-07-20T10:04:53;18.80;99.90
54930;DHT22;40833;53.238;6.576;2023-07-20T10:07:19;19.10;99.90
54930;DHT22;40833;53.238;6.576;2023-07-20T10:09:48;19.40;99.90
54930;DHT22;40833;53.238;6.576;2023-07-20T10:12:16;19.60;99.90
54930;DHT22;40833;53.238;6.576;2023-07-20T10:14:51;19.80;99.90
54930;DHT22;40833;53.238;6.576;2023-07-20T10:17:18;19.60;99.90
54930;DHT22;40833;53.238;6.576;2023-07-20T10:19:47;19.30;99.90
54930;DHT22;40833;53.238;6.576;2023-07-20T10:22:19;19.10;99.90
54930;DHT22;40833;53.238;6.576;2023-07-20T10:24:46;19.10;99.90
54930;DHT22;40833;53.238;6.576;2023-07-20T10:27:15;19.00;99.90
54930;DHT22;40833;53.238;6.576;2023-07-20T10:29:41;19.20;99.90
54930;DHT22;40833;53.238;6.576;2023-07-20T10:32:08;19.30;99.90
54930;DHT22;40833;53.238;6.576;2023-07-20T10:34:34;19.40;99.90
54930;DHT22;40833;53.238;6.576;2023-07-20T10:37:00;19.50;99.90
54930;DHT22;40833;53.238;6.576;2023-07-20T10:39:31;19.80;99.90
54930;DHT22;40833;53.238;6.576;2023-07-20T10:42:10;19.90;99.90
54930;DHT22;40833;53.238;6.576;2023-07-20T10:44:40;20.00;99.90
54930;DHT22;40833;53.238;6.576;2023-07-20T10:47:14;20.10;99.90
54930;DHT22;40833;53.238;6.576;2023-07-20T10:49:59;20.20;99.90
54930;DHT22;40833;53.238;6.576;2023-07-20T10:52:26;20.20;99.90
54930;DHT22;40833;53.238;6.576;2023-07-20T10:54:51;20.10;99.90
54930;DHT22;40833;53.238;6.576;2023-07-20T10:57:28;20.00;99.90
54930;DHT22;40833;53.238;6.576;2023-07-20T11:00:11;20.00;99.90
54930;DHT22;40833;53.238;6.576;2023-07-20T11:02:48;20.20;99.90
54930;DHT22;40833;53.238;6.576;2023-07-20T11:05:37;20.20;99.90
54930;DHT22;40833;53.238;6.576;2023-07-20T11:08:04;20.10;99.90
54930;DHT22;40833;53.238;6.576;2023-07-20T11:10:30;20.00;99.90
54930;DHT22;40833;53.238;6.576;2023-07-20T11:15:48;20.20;99.90
54930;DHT22;40833;53.238;6.576;2023-07-20T11:18:26;20.40;99.90
54930;DHT22;40833;53.238;6.576;2023-07-20T11:20:53;20.60;99.90
54930;DHT22;40833;53.238;6.576;2023-07-20T11:23:22;20.60;99.90
54930;DHT22;40833;53.238;6.576;2023-07-20T11:25:49;20.40;99.90
54930;DHT22;40833;53.238;6.576;2023-07-20T11:28:15;20.20;99.90
54930;DHT22;40833;53.238;6.576;2023-07-20T11:30:41;20.30;99.90
54930;DHT22;40833;53.238;6.576;2023-07-20T11:33:10;20.50;99.90
54930;DHT22;40833;53.238;6.576;2023-07-20T11:35:45;20.70;99.90
54930;DHT22;40833;53.238;6.576;2023-07-20T11:38:16;20.80;99.90
54930;DHT22;40833;53.238;6.576;2023-07-20T11:40:46;21.00;99.90
54930;DHT22;40833;53.238;6.576;2023-07-20T11:43:15;21.00;99.90
54930;DHT22;40833;53.238;6.576;2023-07-20T11:45:41;20.70;99.90
54930;DHT22;40833;53.238;6.576;2023-07-20T11:48:06;20.70;99.90
54930;DHT22;40833;53.238;6.576;2023-07-20T11:50:38;21.00;99.90
54930;DHT22;40833;53.238;6.576;2023-07-20T11:53:04;21.10;99.90
54930;DHT22;40833;53.238;6.576;2023-07-20T11:55:30;21.00;99.90
54930;DHT22;40833;53.238;6.576;2023-07-20T11:58:07;20.80;99.90
54930;DHT22;40833;53.238;6.576;2023-07-20T12:00:34;20.90;99.90
54930;DHT22;40833;53.238;6.576;2023-07-20T12:03:01;21.20;99.90
54930;DHT22;40833;53.238;6.576;2023-07-20T12:05:26;21.40;99.90
54930;DHT22;40833;53.238;6.576;2023-07-20T12:07:53;21.50;99.90
54930;DHT22;40833;53.238;6.576;2023-07-20T12:10:27;21.40;99.90
54930;DHT22;40833;53.238;6.576;2023-07-20T12:12:54;21.30;99.70
54930;DHT22;40833;53.238;6.576;2023-07-20T12:17:48;21.10;99.90
54930;DHT22;40833;53.238;6.576;2023-07-20T12:20:34;21.00;99.90
54930;DHT22;40833;53.238;6.576;2023-07-20T12:23:08;20.80;99.90
54930;DHT22;40833;53.238;6.576;2023-07-20T12:28:13;20.70;99.90
54930;DHT22;40833;53.238;6.576;2023-07-20T12:30:41;20.80;99.90
54930;DHT22;40833;53.238;6.576;2023-07-20T12:33:07;20.80;99.90
54930;DHT22;40833;53.238;6.576;2023-07-20T12:35:33;20.80;99.90
54930;DHT22;40833;53.238;6.576;2023-07-20T12:37:59;20.70;99.90
54930;DHT22;40833;53.238;6.576;2023-07-20T12:40:25;20.70;99.90
54930;DHT22;40833;53.238;6.576;2023-07-20T12:42:51;20.60;99.90
54930;DHT22;40833;53.238;6.576;2023-07-20T12:45:16;20.50;99.90
54930;DHT22;40833;53.238;6.576;2023-07-20T12:47:42;20.50;99.90
54930;DHT22;40833;53.238;6.576;2023-07-20T12:50:12;20.50;99.90
54930;DHT22;40833;53.238;6.576;2023-07-20T12:52:39;20.40;99.90
54930;DHT22;40833;53.238;6.576;2023-07-20T12:55:06;20.40;99.90
54930;DHT22;40833;53.238;6.576;2023-07-20T12:57:34;20.50;99.90
54930;DHT22;40833;53.238;6.576;2023-07-20T13:00:01;20.70;99.90
54930;DHT22;40833;53.238;6.576;2023-07-20T13:02:29;20.80;99.90
54930;DHT22;40833;53.238;6.576;2023-07-20T13:04:55;21.00;99.90
54930;DHT22;40833;53.238;6.576;2023-07-20T13:07:33;21.20;99.90
54930;DHT22;40833;53.238;6.576;2023-07-20T13:10:00;21.50;99.90
54930;DHT22;40833;53.238;6.576;2023-07-20T13:12:27;21.50;99.90
54930;DHT22;40833;53.238;6.576;2023-07-20T13:14:54;21.40;99.90
54930;DHT22;40833;53.238;6.576;2023-07-20T13:17:21;21.20;99.90
54930;DHT22;40833;53.238;6.576;2023-07-20T13:19:47;21.00;99.90
54930;DHT22;40833;53.238;6.576;2023-07-20T13:22:13;20.80;99.90
54930;DHT22;40833;53.238;6.576;2023-07-20T13:24:40;20.60;99.90
54930;DHT22;40833;53.238;6.576;2023-07-20T13:27:06;20.40;99.90
54930;DHT22;40833;53.238;6.576;2023-07-20T13:29:32;20.30;99.90
54930;DHT22;40833;53.238;6.576;2023-07-20T13:31:58;20.10;99.90
54930;DHT22;40833;53.238;6.576;2023-07-20T13:34:25;19.90;99.90
54930;DHT22;40833;53.238;6.576;2023-07-20T13:36:51;19.80;99.90
54930;DHT22;40833;53.238;6.576;2023-07-20T13:39:17;19.80;99.90
54930;DHT22;40833;53.238;6.576;2023-07-20T13:41:43;19.80;99.90
54930;DHT22;40833;53.238;6.576;2023-07-20T13:44:09;19.80;99.90
54930;DHT22;40833;53.238;6.576;2023-07-20T13:46:34;19.80;99.90
54930;DHT22;40833;53.238;6.576;2023-07-20T13:49:00;20.40;99.90
54930;DHT22;40833;53.238;6.576;2023-07-20T13:51:26;19.90;99.90
54930;DHT22;40833;53.238;6.576;2023-07-20T13:53:51;20.10;99.90
54930;DHT22;40833;53.238;6.576;2023-07-20T13:56:17;20.30;99.90
54930;DHT22;40833;53.238;6.576;2023-07-20T13:58:43;20.20;99.90
54930;DHT22;40833;53.238;6.576;2023-07-20T14:01:09;20.30;99.90
54930;DHT22;40833;53.238;6.576;2023-07-20T14:03:34;20.20;99.90
54930;DHT22;40833;53.238;6.576;2023-07-20T14:06:00;20.30;99.90
54930;DHT22;40833;53.238;6.576;2023-07-20T14:08:26;20.40;99.90
54930;DHT22;40833;53.238;6.576;2023-07-20T14:10:51;20.40;99.90
54930;DHT22;40833;53.238;6.576;2023-07-20T14:13:17;20.50;99.90
54930;DHT22;40833;53.238;6.576;2023-07-20T14:15:43;21.00;99.90
54930;DHT22;40833;53.238;6.576;2023-07-20T14:18:08;21.40;99.90
54930;DHT22;40833;53.238;6.576;2023-07-20T14:20:34;21.40;99.90
54930;DHT22;40833;53.238;6.576;2023-07-20T14:23:00;21.50;99.90
54930;DHT22;40833;53.238;6.576;2023-07-20T14:25:26;21.80;99.90
54930;DHT22;40833;53.238;6.576;2023-07-20T14:27:53;22.10;99.90
54930;DHT22;40833;53.238;6.576;2023-07-20T14:30:19;22.10;99.90
54930;DHT22;40833;53.238;6.576;2023-07-20T14:32:44;22.30;99.90
54930;DHT22;40833;53.238;6.576;2023-07-20T14:37:41;22.50;99.90
54930;DHT22;40833;53.238;6.576;2023-07-20T14:40:07;22.80;99.90
54930;DHT22;40833;53.238;6.576;2023-07-20T14:42:33;22.80;99.90
54930;DHT22;40833;53.238;6.576;2023-07-20T14:44:59;23.00;99.90
54930;DHT22;40833;53.238;6.576;2023-07-20T14:50:16;23.30;99.90
54930;DHT22;40833;53.238;6.576;2023-07-20T14:52:42;22.60;99.90
54930;DHT22;40833;53.238;6.576;2023-07-20T14:55:08;22.50;99.90
54930;DHT22;40833;53.238;6.576;2023-07-20T14:57:33;22.40;99.90
54930;DHT22;40833;53.238;6.576;2023-07-20T14:59:59;22.40;99.90
54930;DHT22;40833;53.238;6.576;2023-07-20T15:02:24;22.70;99.90
54930;DHT22;40833;53.238;6.576;2023-07-20T15:04:51;22.60;99.90
54930;DHT22;40833;53.238;6.576;2023-07-20T15:07:20;22.40;99.90
54930;DHT22;40833;53.238;6.576;2023-07-20T15:09:49;22.20;99.90
54930;DHT22;40833;53.238;6.576;2023-07-20T15:12:15;21.90;99.90
54930;DHT22;40833;53.238;6.576;2023-07-20T15:14:42;21.80;99.90
54930;DHT22;40833;53.238;6.576;2023-07-20T15:17:09;21.70;99.90
54930;DHT22;40833;53.238;6.576;2023-07-20T15:19:34;21.70;99.90
54930;DHT22;40833;53.238;6.576;2023-07-20T15:22:04;21.80;99.90
54930;DHT22;40833;53.238;6.576;2023-07-20T15:24:32;21.70;99.90
54930;DHT22;40833;53.238;6.576;2023-07-20T15:26:57;21.50;99.90
54930;DHT22;40833;53.238;6.576;2023-07-20T15:29:23;21.40;99.90
54930;DHT22;40833;53.238;6.576;2023-07-20T15:31:49;21.20;99.90
54930;DHT22;40833;53.238;6.576;2023-07-20T15:34:15;21.00;99.90
54930;DHT22;40833;53.238;6.576;2023-07-20T15:36:41;20.90;99.90
54930;DHT22;40833;53.238;6.576;2023-07-20T15:39:08;20.80;99.90
54930;DHT22;40833;53.238;6.576;2023-07-20T15:41:33;20.80;99.90
54930;DHT22;40833;53.238;6.576;2023-07-20T15:43:59;20.80;99.90
54930;DHT22;40833;53.238;6.576;2023-07-20T15:49:06;20.90;99.90
54930;DHT22;40833;53.238;6.576;2023-07-20T15:51:33;21.40;99.90